Time;durP1;ratioP1;P1;durP2;ratioP2;P2;SDS_P1;SDS_P2;PMS_P1;PMS_P2;Temp;Humidity;BMP_temperature;BMP_pressure;BME280_temperature;BME280_humidity;BME280_pressure;Samples;Min_cycle;Max_cycle;Signal;HPM_P1;HPM_P2
2023/01/18 00:00:39;;;;;;;24.83;10.60;;;;;;;2.89;69.86;96192.22;5232640;28;20153;-72
2023/01/18 00:03:32;;;;;;;22.75;9.35;;;;;;;2.94;70.17;96169.78;5244131;28;20055;-72
2023/01/18 00:06:26;;;;;;;22.02;10.50;;;;;;;2.99;69.57;96190.25;5246410;28;20428;-72
2023/01/18 00:09:16;;;;;;;21.35;9.60;;;;;;;2.94;70.01;96189.91;5245299;28;20052;-72
2023/01/18 00:12:06;;;;;;;19.95;10.38;;;;;;;2.93;70.37;96196.94;5238498;28;20052;-72
2023/01/18 00:14:57;;;;;;;22.20;11.43;;;;;;;2.93;69.92;96193.53;5238466;28;20052;-72
2023/01/18 00:17:50;;;;;;;22.83;10.10;;;;;;;2.81;70.39;96201.72;5245336;28;20443;-73
2023/01/18 00:20:40;;;;;;;23.52;10.02;;;;;;;2.68;70.75;96195.31;5234207;28;20060;-72
2023/01/18 00:23:30;;;;;;;19.73;9.90;;;;;;;2.83;70.36;96183.22;5243570;28;20105;-73
2023/01/18 00:26:20;;;;;;;20.05;10.30;;;;;;;2.65;71.08;96199.09;5238017;28;20052;-72
2023/01/18 00:29:10;;;;;;;20.65;9.57;;;;;;;2.64;71.33;96200.06;5234538;28;20121;-72
2023/01/18 00:32:00;;;;;;;21.65;10.93;;;;;;;2.80;70.46;96199.25;5242470;28;20155;-73
2023/01/18 00:34:50;;;;;;;23.17;10.63;;;;;;;2.61;71.83;96199.56;5244653;28;20044;-72
2023/01/18 00:37:41;;;;;;;21.65;11.65;;;;;;;2.80;71.04;96197.44;5243421;28;20049;-72
2023/01/18 00:40:31;;;;;;;25.38;11.13;;;;;;;2.85;70.55;96201.38;5226106;28;20136;-72
2023/01/18 00:43:37;;;;;;;28.40;11.30;;;;;;;2.78;70.97;96201.19;5243544;28;20052;-73
2023/01/18 00:46:27;;;;;;;20.13;10.32;;;;;;;2.85;70.56;96202.22;5242540;28;20410;-73
2023/01/18 00:49:17;;;;;;;19.88;10.43;;;;;;;2.87;70.11;96196.78;5245909;28;20064;-72
2023/01/18 00:52:07;;;;;;;22.17;10.55;;;;;;;2.89;70.19;96207.94;5231509;28;20055;-72
2023/01/18 00:54:57;;;;;;;21.27;10.35;;;;;;;2.76;70.03;96208.41;5223994;28;20136;-72
2023/01/18 00:57:47;;;;;;;22.98;11.05;;;;;;;2.86;69.89;96206.44;5240645;28;20614;-73
2023/01/18 01:00:37;;;;;;;20.88;10.50;;;;;;;2.90;69.93;96209.56;5233987;28;20063;-72
2023/01/18 01:06:42;;;;;;;26.05;12.10;;;;;;;2.81;70.04;96195.63;5224269;28;20056;-73
2023/01/18 01:06:44;;;;;;;20.50;10.35;;;;;;;2.90;70.28;96196.47;5245401;28;20066;-72
2023/01/18 01:09:35;;;;;;;22.30;11.38;;;;;;;2.88;70.36;96216.75;5244748;28;20597;-73
2023/01/18 01:28:10;;;;;;;21.50;10.85;;;;;;;2.66;71.39;96220.84;5238840;28;20437;-73
2023/01/18 01:31:03;;;;;;;21.80;11.63;;;;;;;2.81;70.44;96220.03;5224311;28;20095;-73
2023/01/18 01:33:53;;;;;;;21.17;11.80;;;;;;;2.87;70.45;96225.59;5224428;28;20084;-73
2023/01/18 01:36:44;;;;;;;25.23;11.57;;;;;;;2.98;69.52;96238.31;5228466;28;20071;-73
2023/01/18 01:39:34;;;;;;;27.85;12.30;;;;;;;2.72;70.28;96239.31;5243500;28;20094;-73
2023/01/18 01:42:24;;;;;;;25.13;12.00;;;;;;;2.75;71.30;96239.00;5238321;28;20067;-73
2023/01/18 01:45:14;;;;;;;27.13;12.82;;;;;;;2.81;69.68;96243.59;5244350;28;20079;-73
2023/01/18 01:48:04;;;;;;;23.17;11.60;;;;;;;2.82;70.82;96244.41;5243513;28;20181;-73
2023/01/18 01:50:54;;;;;;;22.45;11.95;;;;;;;2.91;70.55;96242.59;5233337;28;20055;-73
2023/01/18 01:53:46;;;;;;;25.05;12.63;;;;;;;2.94;69.88;96242.25;5225303;28;20082;-73
2023/01/18 01:56:37;;;;;;;27.05;12.18;;;;;;;3.01;70.36;96248.47;5240252;28;20555;-73
2023/01/18 01:59:27;;;;;;;25.33;12.40;;;;;;;2.97;70.77;96247.97;5243564;28;20117;-72
2023/01/18 02:02:17;;;;;;;32.47;11.70;;;;;;;2.93;70.30;96245.88;5234709;28;20503;-73
2023/01/18 02:05:10;;;;;;;25.27;12.93;;;;;;;2.97;70.14;96247.97;5222679;28;20067;-73
2023/01/18 02:08:03;;;;;;;25.10;12.35;;;;;;;3.08;70.79;96249.47;5228258;28;20127;-73
2023/01/18 02:10:53;;;;;;;23.23;12.05;;;;;;;3.00;69.79;96257.31;5243482;28;20048;-73
2023/01/18 02:13:43;;;;;;;25.70;13.20;;;;;;;2.91;70.44;96258.28;5223865;28;20057;-73
2023/01/18 02:16:54;;;;;;;25.13;12.85;;;;;;;2.94;69.84;96264.00;5235347;28;20522;-73
2023/01/18 02:20:18;;;;;;;29.75;13.20;;;;;;;2.71;70.84;96263.81;5223112;28;20045;-73
2023/01/18 02:23:29;;;;;;;30.90;13.77;;;;;;;2.72;70.97;96265.47;5239804;28;20060;-73
2023/01/18 02:26:57;;;;;;;29.73;12.80;;;;;;;2.81;70.16;96277.59;5233771;28;20059;-73
2023/01/18 02:30:11;;;;;;;29.13;13.00;;;;;;;2.90;70.73;96274.97;5216874;28;20075;-74
2023/01/18 02:33:09;;;;;;;25.20;12.55;;;;;;;2.80;70.97;96275.94;5239950;28;20048;-73
2023/01/18 02:36:01;;;;;;;26.55;12.85;;;;;;;2.98;69.85;96275.81;5225934;28;20614;-73
2023/01/18 02:38:59;;;;;;;29.17;13.70;;;;;;;2.94;69.45;96274.47;5243612;28;20051;-73
2023/01/18 02:48:39;;;;;;;28.38;13.38;;;;;;;2.93;71.15;96283.31;5223664;28;20063;-73
2023/01/18 02:51:29;;;;;;;30.80;15.20;;;;;;;2.97;70.45;96289.06;5238861;28;20056;-73
2023/01/18 02:54:23;;;;;;;31.10;14.73;;;;;;;2.80;71.13;96291.66;5242218;28;20098;-73
2023/01/18 02:57:14;;;;;;;;;;;;;;;2.78;70.62;96295.41;5242596;28;20048;-73
2023/01/18 03:00:10;;;;;;;32.60;14.82;;;;;;;2.78;71.64;96301.47;5239953;28;19999;-73
2023/01/18 03:03:00;;;;;;;28.02;14.70;;;;;;;2.80;71.67;96299.50;5241403;28;20127;-73
2023/01/18 03:05:55;;;;;;;31.15;14.88;;;;;;;2.87;71.49;96291.00;5243116;28;20056;-73
2023/01/18 03:08:50;;;;;;;35.42;15.05;;;;;;;2.56;72.46;96294.22;5243503;28;20057;-73
2023/01/18 03:12:18;;;;;;;30.95;15.18;;;;;;;2.82;71.22;96294.94;5241686;28;20060;-73
2023/01/18 03:15:15;;;;;;;33.83;15.60;;;;;;;2.96;70.76;96303.13;5241032;28;20426;-73
2023/01/18 03:18:12;;;;;;;36.20;16.05;;;;;;;2.89;70.30;96294.28;5233478;28;20045;-73
2023/01/18 03:21:07;;;;;;;35.50;15.05;;;;;;;3.01;71.20;96300.81;5222292;28;20064;-73
2023/01/18 03:24:01;;;;;;;36.58;16.15;;;;;;;2.91;71.23;96311.44;5232594;28;20590;-73
2023/01/18 03:26:54;;;;;;;;;;;;;;;2.77;71.51;96307.66;5238583;28;20410;-73
2023/01/18 03:36:08;;;;;;;35.53;16.05;;;;;;;2.63;72.19;96290.00;5234575;28;20056;-73
2023/01/18 03:39:10;;;;;;;29.50;15.50;;;;;;;2.69;71.79;96302.44;5225762;28;20053;-73
2023/01/18 03:42:08;;;;;;;29.33;14.85;;;;;;;2.41;72.27;96303.66;5238728;28;20517;-73
2023/01/18 03:45:06;;;;;;;34.60;15.77;;;;;;;2.85;70.88;96300.81;5222954;28;20045;-73
2023/01/18 03:47:58;;;;;;;37.38;16.15;;;;;;;2.67;72.31;96317.47;5243870;28;20424;-73
2023/01/18 03:51:01;;;;;;;35.35;15.85;;;;;;;2.75;71.85;96333.19;5230730;28;20064;-73
2023/01/18 03:54:26;;;;;;;32.90;14.85;;;;;;;2.42;71.47;96316.59;5237530;28;20399;-73
2023/01/18 03:57:21;;;;;;;;;;;;;;;2.56;71.02;96330.84;5244927;28;20076;-73
2023/01/18 04:00:13;;;;;;;30.13;14.80;;;;;;;2.64;70.34;96336.09;5245220;28;20550;-73
2023/01/18 04:03:04;;;;;;;31.95;13.95;;;;;;;2.56;72.39;96343.94;5229416;28;20558;-73
2023/01/18 04:05:54;;;;;;;28.88;14.50;;;;;;;2.36;71.72;96345.97;5236886;28;20505;-73
2023/01/18 04:08:44;;;;;;;32.17;14.77;;;;;;;2.08;73.50;96316.59;5234897;28;20118;-73
2023/01/18 04:11:34;;;;;;;27.10;14.35;;;;;;;2.53;72.68;96339.00;5243698;28;20056;-73
2023/01/18 04:14:24;;;;;;;34.47;15.10;;;;;;;1.87;72.68;96312.59;5242742;28;20044;-73
2023/01/18 04:17:16;;;;;;;29.90;14.95;;;;;;;2.05;73.80;96354.34;5243210;28;20064;-73
2023/01/18 04:20:07;;;;;;;32.00;14.75;;;;;;;2.27;72.79;96347.72;5227322;28;20183;-73
2023/01/18 04:22:57;;;;;;;28.90;13.98;;;;;;;2.52;72.16;96346.03;5237173;28;20048;-73
2023/01/18 04:25:49;;;;;;;34.42;15.55;;;;;;;2.52;70.99;96366.16;5234438;28;20087;-73
2023/01/18 04:28:39;;;;;;;31.90;15.60;;;;;;;2.22;71.41;96367.47;5242110;28;20135;-73
2023/01/18 04:31:29;;;;;;;36.33;14.43;;;;;;;2.31;72.62;96364.75;5236973;28;20052;-73
2023/01/18 04:34:21;;;;;;;32.83;14.45;;;;;;;2.55;71.73;96360.56;5239730;28;20094;-73
2023/01/18 04:37:11;;;;;;;30.40;14.00;;;;;;;2.48;71.19;96370.03;5232894;28;20043;-73
2023/01/18 04:40:01;;;;;;;29.23;12.90;;;;;;;2.56;71.00;96370.91;5244598;28;20510;-73
2023/01/18 04:42:53;;;;;;;31.73;15.15;;;;;;;2.52;72.39;96376.63;5225427;28;20740;-73
2023/01/18 04:45:52;;;;;;;27.58;13.25;;;;;;;2.46;72.98;96380.66;5241972;28;20557;-74
2023/01/18 04:48:43;;;;;;;25.77;12.50;;;;;;;2.60;71.36;96381.88;5230226;28;20063;-74
2023/01/18 04:51:33;;;;;;;26.45;12.18;;;;;;;2.75;71.13;96388.16;5241064;28;20056;-73
2023/01/18 04:54:23;;;;;;;26.77;13.00;;;;;;;2.29;71.71;96390.25;5245640;28;20063;-73
2023/01/18 04:57:13;;;;;;;23.55;11.50;;;;;;;2.32;72.05;96387.31;5244719;28;20062;-74
2023/01/18 05:00:04;;;;;;;26.48;11.02;;;;;;;2.22;71.80;96399.69;5241489;28;20079;-73
2023/01/18 05:02:57;;;;;;;22.15;11.18;;;;;;;1.86;71.43;96378.88;5241730;28;20725;-73
2023/01/18 05:05:48;;;;;;;19.52;9.77;;;;;;;1.96;71.84;96389.25;5244926;28;20419;-73
2023/01/18 05:08:41;;;;;;;20.08;9.60;;;;;;;2.14;72.57;96417.13;5243154;28;20541;-73
2023/01/18 05:11:32;;;;;;;18.50;9.35;;;;;;;1.85;73.75;96419.06;5226347;28;20064;-73
2023/01/18 05:14:22;;;;;;;18.35;9.30;;;;;;;2.22;72.12;96428.44;5243599;28;20047;-73
2023/01/18 05:17:12;;;;;;;24.80;8.73;;;;;;;1.68;73.98;96443.41;5230551;28;20052;-74
2023/01/18 05:20:05;;;;;;;17.65;7.68;;;;;;;2.12;72.42;96443.41;5244751;28;20055;-73
2023/01/18 05:22:55;;;;;;;14.48;7.47;;;;;;;2.08;72.28;96449.91;5224656;28;20419;-72
2023/01/18 05:25:50;;;;;;;16.35;7.03;;;;;;;2.08;73.02;96457.75;5233224;28;20040;-73
2023/01/18 05:28:41;;;;;;;17.98;7.28;;;;;;;1.68;72.95;96464.28;5240777;28;20044;-73
2023/01/18 05:31:31;;;;;;;15.23;7.43;;;;;;;1.93;72.55;96472.34;5232735;28;20049;-73
2023/01/18 05:34:21;;;;;;;14.90;8.32;;;;;;;1.61;74.44;96481.53;5244908;28;20052;-73
2023/01/18 05:37:11;;;;;;;17.45;8.20;;;;;;;1.68;74.14;96487.00;5224346;28;20048;-74
2023/01/18 05:40:02;;;;;;;14.68;7.78;;;;;;;1.88;71.45;96467.56;5237388;28;20053;-73
2023/01/18 05:42:52;;;;;;;18.50;8.27;;;;;;;2.18;72.68;96476.75;5243372;28;20041;-72
2023/01/18 05:45:42;;;;;;;14.02;7.88;;;;;;;2.37;71.40;96499.28;5233044;28;20045;-74
2023/01/18 05:48:33;;;;;;;13.80;8.35;;;;;;;2.41;72.18;96503.22;5233451;28;20717;-73
2023/01/18 05:51:24;;;;;;;18.92;8.40;;;;;;;2.49;71.50;96499.88;5226856;28;20107;-73
2023/01/18 05:54:14;;;;;;;17.38;8.43;;;;;;;2.55;71.16;96499.22;5227090;28;20428;-74
2023/01/18 05:57:04;;;;;;;16.75;8.57;;;;;;;2.32;69.69;96491.91;5227545;28;20106;-73
2023/01/18 05:59:54;;;;;;;16.20;8.32;;;;;;;2.52;71.59;96515.25;5242979;28;20102;-74
2023/01/18 06:02:44;;;;;;;17.77;8.52;;;;;;;2.53;70.51;96522.94;5242990;28;20125;-73
2023/01/18 06:05:34;;;;;;;19.48;9.18;;;;;;;2.26;70.78;96515.22;5229175;28;20049;-74
2023/01/18 06:08:24;;;;;;;17.48;8.65;;;;;;;2.40;71.24;96545.22;5237060;28;20572;-72
2023/01/18 06:11:14;;;;;;;23.33;10.57;;;;;;;2.31;72.12;96533.88;5236938;28;20440;-74
2023/01/18 06:14:04;;;;;;;17.70;10.13;;;;;;;2.49;71.64;96567.88;5240657;28;20188;-73
2023/01/18 06:16:54;;;;;;;19.08;8.65;;;;;;;2.33;72.16;96577.22;5244278;28;20157;-75
2023/01/18 06:19:44;;;;;;;23.83;9.30;;;;;;;2.44;71.73;96562.25;5235292;28;20190;-75
2023/01/18 06:22:35;;;;;;;26.52;10.88;;;;;;;2.43;71.29;96584.16;5223604;28;20823;-75
2023/01/18 06:25:25;;;;;;;19.15;8.95;;;;;;;2.36;71.92;96589.19;5228924;28;20060;-72
2023/01/18 06:28:15;;;;;;;22.38;9.02;;;;;;;2.41;72.27;96583.47;5237006;28;20109;-74
2023/01/18 06:31:07;;;;;;;16.20;8.15;;;;;;;2.41;72.33;96586.09;5224904;28;20098;-74
2023/01/18 06:33:57;;;;;;;20.55;8.73;;;;;;;2.35;71.98;96601.44;5234471;28;20053;-74
2023/01/18 06:36:50;;;;;;;17.08;8.77;;;;;;;2.65;71.37;96602.00;5229957;28;20044;-77
2023/01/18 06:39:40;;;;;;;19.80;8.48;;;;;;;2.34;71.83;96594.53;5228362;28;20573;-72
2023/01/18 06:42:30;;;;;;;26.38;8.70;;;;;;;2.38;71.95;96612.56;5239026;28;20045;-73
2023/01/18 06:45:21;;;;;;;21.73;8.25;;;;;;;2.18;71.38;96614.50;5239332;28;20044;-71
2023/01/18 06:48:11;;;;;;;23.13;9.90;;;;;;;2.26;72.61;96622.44;5244067;28;20055;-73
2023/01/18 06:51:02;;;;;;;23.73;8.90;;;;;;;2.48;71.77;96618.50;5224360;28;20248;-79
2023/01/18 06:53:51;;;;;;;25.75;8.45;;;;;;;2.28;71.82;96623.09;5235211;28;20055;-76
2023/01/18 06:56:41;;;;;;;16.75;7.70;;;;;;;2.03;74.10;96630.72;5228096;28;20049;-76
2023/01/18 06:59:31;;;;;;;16.92;7.60;;;;;;;2.13;72.88;96646.34;5241614;28;20163;-73
2023/01/18 07:02:22;;;;;;;12.93;7.40;;;;;;;2.29;72.35;96653.50;5233443;28;20045;-72
2023/01/18 07:05:12;;;;;;;15.13;7.05;;;;;;;2.24;73.75;96653.13;5231227;28;20806;-74
2023/01/18 07:08:02;;;;;;;12.85;7.00;;;;;;;2.36;71.24;96638.88;5234599;28;20431;-72
2023/01/18 07:10:53;;;;;;;19.02;7.90;;;;;;;2.52;71.52;96662.53;5225492;28;20045;-71
2023/01/18 07:13:45;;;;;;;14.13;7.30;;;;;;;2.51;71.68;96666.09;5240015;28;20041;-71
2023/01/18 07:16:35;;;;;;;18.60;7.90;;;;;;;2.52;72.11;96670.41;5232567;28;20076;-71
2023/01/18 07:19:25;;;;;;;20.48;9.20;;;;;;;2.09;72.38;96673.75;5237339;28;20052;-74
2023/01/18 07:22:15;;;;;;;17.85;9.10;;;;;;;1.46;74.02;96669.28;5233611;28;20201;-73
2023/01/18 07:25:06;;;;;;;19.48;9.77;;;;;;;1.52;74.85;96686.13;5235545;28;20676;-73
2023/01/18 07:27:56;;;;;;;22.08;11.10;;;;;;;1.30;75.29;96682.13;5239446;28;20119;-73
2023/01/18 07:30:46;;;;;;;24.75;11.65;;;;;;;1.78;75.13;96701.97;5240807;28;20049;-72
2023/01/18 07:33:37;;;;;;;24.05;12.40;;;;;;;1.99;72.83;96709.59;5230622;28;20079;-73
2023/01/18 07:36:27;;;;;;;27.55;13.45;;;;;;;1.41;75.42;96719.28;5220837;28;20095;-73
2023/01/18 07:39:18;;;;;;;29.08;13.32;;;;;;;1.16;75.15;96709.50;5228679;28;20178;-74
2023/01/18 07:42:08;;;;;;;32.83;15.10;;;;;;;0.70;77.34;96718.91;5224575;28;20188;-72
2023/01/18 07:44:58;;;;;;;31.88;15.10;;;;;;;1.42;74.76;96735.78;5225024;28;20498;-73
2023/01/18 07:47:48;;;;;;;32.90;14.98;;;;;;;1.01;76.13;96732.59;5219578;28;20502;-73
2023/01/18 07:50:39;;;;;;;28.48;14.85;;;;;;;0.97;75.05;96746.88;5231842;28;20052;-74
2023/01/18 07:53:30;;;;;;;27.35;15.32;;;;;;;0.89;76.63;96718.88;5235552;28;20736;-71
2023/01/18 07:56:24;;;;;;;28.38;15.65;;;;;;;0.62;76.96;96748.25;5226064;28;20274;-70
2023/01/18 07:59:16;;;;;;;30.70;15.23;;;;;;;0.62;77.15;96748.25;5238450;28;20525;-70
2023/01/18 08:02:07;;;;;;;34.80;16.75;;;;;;;0.93;76.00;96759.38;5231785;28;20802;-73
2023/01/18 08:04:58;;;;;;;30.48;15.20;;;;;;;0.99;75.71;96780.66;5228555;28;20213;-73
2023/01/18 08:07:55;;;;;;;30.00;14.52;;;;;;;0.44;78.06;96776.78;5230295;28;20078;-72
2023/01/18 08:10:45;;;;;;;31.67;15.38;;;;;;;0.85;77.49;96782.72;5227250;28;20590;-72
2023/01/18 08:13:36;;;;;;;30.55;15.27;;;;;;;0.89;76.77;96785.88;5229374;28;20514;-71
2023/01/18 08:16:28;;;;;;;33.78;15.73;;;;;;;0.83;76.77;96787.25;5226424;28;20055;-72
2023/01/18 08:19:18;;;;;;;30.13;15.20;;;;;;;0.63;77.57;96786.44;5228936;28;20166;-71
2023/01/18 08:22:08;;;;;;;36.38;16.40;;;;;;;1.17;75.81;96795.47;5233044;28;20161;-71
2023/01/18 08:24:59;;;;;;;30.98;16.65;;;;;;;1.51;73.79;96791.56;5238454;28;20569;-72
2023/01/18 08:27:49;;;;;;;35.55;16.75;;;;;;;0.87;76.28;96798.25;5227952;28;20076;-72
2023/01/18 08:30:42;;;;;;;40.45;18.45;;;;;;;1.37;76.20;96800.69;5237633;28;20118;-73
2023/01/18 08:33:38;;;;;;;32.80;16.80;;;;;;;1.01;75.68;96815.28;5242349;28;20048;-72
2023/01/18 08:36:30;;;;;;;37.17;17.63;;;;;;;1.70;75.64;96833.31;5230808;28;20260;-72
2023/01/18 08:39:20;;;;;;;38.92;18.00;;;;;;;1.52;74.27;96842.84;5240959;28;20118;-72
2023/01/18 08:42:11;;;;;;;31.27;16.35;;;;;;;1.73;73.74;96848.72;5232768;28;20067;-72
2023/01/18 08:45:00;;;;;;;28.58;15.80;;;;;;;1.39;74.06;96866.63;5227298;28;20063;-73
2023/01/18 08:47:59;;;;;;;35.78;16.27;;;;;;;1.62;73.79;96862.78;5229957;28;20044;-72
2023/01/18 08:50:49;;;;;;;26.08;14.27;;;;;;;1.29;74.82;96866.66;5228719;28;20635;-72
2023/01/18 08:53:40;;;;;;;31.30;14.13;;;;;;;1.56;75.54;96881.59;5221913;28;20053;-72
2023/01/18 08:56:30;;;;;;;28.70;14.88;;;;;;;1.59;75.33;96885.69;5216663;28;20047;-72
2023/01/18 08:59:22;;;;;;;26.42;13.55;;;;;;;1.69;73.93;96888.31;5216418;28;20443;-71
2023/01/18 09:02:12;;;;;;;28.67;14.35;;;;;;;2.07;73.46;96897.88;5214476;28;20063;-72
2023/01/18 09:05:03;;;;;;;29.98;13.75;;;;;;;1.96;73.86;96900.66;5227140;28;20158;-71
2023/01/18 09:07:54;;;;;;;26.77;12.85;;;;;;;2.21;72.22;96909.66;5227975;28;20438;-72
2023/01/18 09:10:44;;;;;;;24.23;12.75;;;;;;;1.85;72.72;96889.41;5228115;28;20052;-72
2023/01/18 09:13:35;;;;;;;26.27;12.43;;;;;;;1.65;74.08;96914.72;5223496;28;20430;-70
2023/01/18 09:16:25;;;;;;;23.60;12.05;;;;;;;1.47;74.03;96916.38;5224982;28;20098;-71
2023/01/18 09:19:16;;;;;;;22.00;12.10;;;;;;;1.28;75.14;96914.59;5221549;28;20071;-71
2023/01/18 09:22:06;;;;;;;19.25;11.70;;;;;;;1.15;75.05;96927.09;5217765;28;20044;-73
2023/01/18 09:24:56;;;;;;;19.25;10.73;;;;;;;1.54;74.95;96916.66;5215909;28;20133;-71
2023/01/18 09:27:46;;;;;;;19.77;10.90;;;;;;;0.31;78.13;96926.59;5223631;28;20194;-72
2023/01/18 09:30:39;;;;;;;23.85;11.60;;;;;;;1.40;75.80;96944.84;5223067;28;20534;-72
2023/01/18 09:33:30;;;;;;;26.70;11.95;;;;;;;1.13;74.98;96949.91;5230822;28;20332;-71
2023/01/18 09:36:27;;;;;;;22.25;11.80;;;;;;;1.14;75.63;96957.59;5226320;28;20084;-74
2023/01/18 09:39:21;;;;;;;31.20;12.30;;;;;;;1.79;74.04;96959.69;5227015;28;20052;-72
2023/01/18 09:42:19;;;;;;;26.60;11.68;;;;;;;1.67;73.66;96971.22;5226269;28;20418;-71
2023/01/18 09:45:38;;;;;;;23.90;12.45;;;;;;;1.15;74.76;96971.44;5225612;28;20528;-72
2023/01/18 09:48:38;;;;;;;20.10;11.25;;;;;;;1.89;74.30;96981.41;5226807;28;20066;-72
2023/01/18 09:51:44;;;;;;;24.98;11.25;;;;;;;1.16;75.04;96992.22;5228214;28;20055;-72
2023/01/18 09:54:59;;;;;;;22.70;11.63;;;;;;;1.90;73.50;96995.28;5224808;28;20063;-73
2023/01/18 09:58:19;;;;;;;20.05;10.98;;;;;;;2.09;72.93;97005.75;5231392;28;20044;-73
2023/01/18 10:01:14;;;;;;;18.02;9.77;;;;;;;1.23;74.49;96994.28;5231196;28;20049;-71
2023/01/18 10:04:35;;;;;;;20.90;10.30;;;;;;;1.64;73.12;97007.09;5231182;28;20131;-71
2023/01/18 10:07:29;;;;;;;19.90;9.90;;;;;;;1.15;74.51;96998.38;5226694;28;20072;-70
2023/01/18 10:10:19;;;;;;;20.67;10.70;;;;;;;1.37;74.22;97002.56;5225133;28;20195;-72
2023/01/18 10:13:13;;;;;;;20.67;10.93;;;;;;;1.35;73.84;97011.47;5222927;28;20135;-71
2023/01/18 10:16:14;;;;;;;21.63;11.50;;;;;;;1.35;74.57;97006.25;5220553;28;20119;-73
2023/01/18 10:19:18;;;;;;;23.30;11.97;;;;;;;1.72;74.54;96995.97;5224462;28;20056;-71
2023/01/18 10:22:30;;;;;;;26.88;12.30;;;;;;;2.41;71.33;97017.63;5221858;28;20131;-70
2023/01/18 10:25:38;;;;;;;29.05;13.52;;;;;;;2.10;71.98;97005.59;5223349;28;20048;-72
2023/01/18 10:29:06;;;;;;;23.27;12.45;;;;;;;1.55;74.63;97017.53;5212882;28;20074;-75
2023/01/18 10:32:01;;;;;;;29.13;12.77;;;;;;;1.83;73.91;97036.84;5224429;28;20726;-70
2023/01/18 10:34:51;;;;;;;29.48;12.63;;;;;;;2.31;72.70;97042.00;5219277;28;20083;-71
2023/01/18 10:37:45;;;;;;;25.42;13.27;;;;;;;2.25;72.29;97036.50;5217916;28;20040;-69
2023/01/18 10:40:37;;;;;;;25.92;12.80;;;;;;;2.31;72.11;97046.41;5217798;28;20573;-74
2023/01/18 10:43:30;;;;;;;24.55;13.55;;;;;;;1.61;74.21;97037.91;5222841;28;20114;-70
2023/01/18 10:46:20;;;;;;;26.92;13.55;;;;;;;1.45;74.62;97035.00;5219186;28;21530;-70
2023/01/18 10:49:40;;;;;;;24.90;12.88;;;;;;;1.25;75.38;97052.41;5227214;28;20056;-70
2023/01/18 10:52:31;;;;;;;29.40;13.38;;;;;;;1.91;74.75;97054.44;5223157;28;20059;-70
2023/01/18 10:55:21;;;;;;;23.02;12.25;;;;;;;1.36;74.35;97054.91;5228103;28;20514;-71
2023/01/18 10:58:13;;;;;;;35.00;13.55;;;;;;;1.11;76.71;97045.78;5229644;28;20053;-70
2023/01/18 11:01:03;;;;;;;27.30;11.82;;;;;;;1.75;74.04;97058.41;5234713;28;20048;-72
2023/01/18 11:04:04;;;;;;;27.52;12.25;;;;;;;2.44;71.88;97064.44;5239917;28;20049;-70
2023/01/18 11:07:03;;;;;;;24.75;12.43;;;;;;;1.98;72.58;97064.19;5218353;28;20135;-68
2023/01/18 11:10:00;;;;;;;24.20;10.60;;;;;;;1.32;74.34;97077.00;5244249;28;20097;-70
2023/01/18 11:12:51;;;;;;;25.17;11.73;;;;;;;2.04;74.20;97070.66;5249892;28;20043;-70
2023/01/18 11:15:42;;;;;;;27.30;11.57;;;;;;;2.42;72.03;97084.66;5245277;28;20091;-73
2023/01/18 11:18:32;;;;;;;26.73;12.23;;;;;;;2.13;73.48;97090.75;5228661;28;20178;-70
2023/01/18 11:21:24;;;;;;;25.92;12.70;;;;;;;1.88;74.20;97086.88;5247542;28;20112;-70
2023/01/18 11:24:26;;;;;;;30.17;12.13;;;;;;;2.21;72.89;97093.50;5247721;28;20044;-70
2023/01/18 11:27:23;;;;;;;22.80;11.30;;;;;;;2.52;71.30;97098.59;5227909;28;20577;-69
2023/01/18 11:30:19;;;;;;;21.88;10.30;;;;;;;1.97;75.51;97095.72;5232841;28;20052;-70
2023/01/18 11:33:17;;;;;;;22.48;10.00;;;;;;;1.74;74.76;97085.50;5233363;28;20063;-69
2023/01/18 11:36:08;;;;;;;24.38;9.77;;;;;;;2.24;72.31;97102.88;5233742;28;20663;-69
2023/01/18 11:39:20;;;;;;;22.52;8.95;;;;;;;2.08;72.41;97104.22;5237907;28;20059;-69
2023/01/18 11:42:15;;;;;;;20.88;9.95;;;;;;;2.48;72.73;97103.25;5236203;28;20534;-71
2023/01/18 11:45:31;;;;;;;21.58;9.32;;;;;;;1.63;73.14;97115.19;5238838;28;21825;-72
2023/01/18 11:48:47;;;;;;;34.40;9.05;;;;;;;1.92;74.34;97113.56;5237017;28;20056;-70
2023/01/18 11:51:44;;;;;;;19.48;9.07;;;;;;;1.21;74.39;97116.28;5234891;28;20631;-69
2023/01/18 11:54:47;;;;;;;21.30;10.00;;;;;;;1.67;72.48;97104.47;5239058;28;20057;-69
2023/01/18 11:57:37;;;;;;;19.23;8.80;;;;;;;0.98;74.10;97092.97;5226865;28;20048;-69
2023/01/18 12:00:40;;;;;;;23.58;8.98;;;;;;;1.20;76.25;97112.84;5243902;28;20541;-70
2023/01/18 12:03:47;;;;;;;19.33;7.95;;;;;;;1.16;74.24;97124.53;5243661;28;20074;-68
2023/01/18 12:07:08;;;;;;;19.08;8.40;;;;;;;1.37;74.32;97138.34;5216619;28;20090;-72
2023/01/18 12:10:00;;;;;;;19.77;8.52;;;;;;;1.88;74.82;97120.84;5214914;28;20117;-73
2023/01/18 12:13:00;;;;;;;18.08;8.98;;;;;;;1.66;74.05;97145.44;5216019;28;20082;-72
2023/01/18 12:16:13;;;;;;;20.27;9.20;;;;;;;2.15;73.21;97145.50;5219721;28;20052;-73
2023/01/18 12:19:41;;;;;;;20.17;8.77;;;;;;;2.37;73.52;97166.19;5228667;28;21670;-72
2023/01/18 12:22:40;;;;;;;18.63;9.32;;;;;;;2.55;70.21;97158.44;5220679;28;20201;-73
2023/01/18 12:25:45;;;;;;;19.67;8.55;;;;;;;2.45;70.59;97163.72;5221634;28;20059;-72
2023/01/18 12:29:02;;;;;;;24.50;8.35;;;;;;;2.70;70.54;97167.53;5219350;28;20053;-69
2023/01/18 12:32:11;;;;;;;16.63;7.78;;;;;;;2.57;70.72;97169.63;5218880;28;20068;-69
2023/01/18 12:35:01;;;;;;;19.58;7.60;;;;;;;3.13;68.80;97168.03;5219157;28;20048;-69
2023/01/18 12:38:46;;;;;;;16.45;7.68;;;;;;;2.52;70.54;97166.59;5222960;28;20049;-69
2023/01/18 12:42:04;;;;;;;16.95;8.45;;;;;;;2.48;69.79;97173.88;5218029;28;20060;-70
2023/01/18 12:45:08;;;;;;;19.60;7.60;;;;;;;2.33;69.85;97181.31;5219397;28;20320;-70
2023/01/18 12:48:01;;;;;;;18.38;7.82;;;;;;;1.81;70.61;97190.31;5217215;28;21773;-70
2023/01/18 12:50:55;;;;;;;21.40;9.07;;;;;;;1.70;70.82;97167.72;5221484;28;20706;-69
2023/01/18 12:54:12;;;;;;;17.90;7.97;;;;;;;1.27;71.97;97155.75;5221767;28;20110;-69
2023/01/18 12:57:03;;;;;;;18.13;7.72;;;;;;;2.23;69.60;97180.50;5219016;28;20059;-69
2023/01/18 13:00:16;;;;;;;16.67;7.43;;;;;;;2.30;68.45;97201.69;5227460;28;20048;-69
2023/01/18 13:03:15;;;;;;;22.20;8.20;;;;;;;2.45;69.46;97186.41;5225468;28;20423;-69
2023/01/18 13:06:05;;;;;;;19.52;8.35;;;;;;;2.48;69.06;97209.69;5228635;28;20056;-69
2023/01/18 13:09:03;;;;;;;17.63;7.65;;;;;;;2.13;70.79;97205.78;5222521;28;20052;-69
2023/01/18 13:11:57;;;;;;;16.90;7.63;;;;;;;2.62;68.28;97200.63;5226556;28;20048;-69
2023/01/18 13:14:54;;;;;;;17.80;7.65;;;;;;;3.03;68.96;97223.84;5228695;28;20058;-69
2023/01/18 13:18:08;;;;;;;19.73;7.88;;;;;;;2.97;69.44;97220.97;5228018;28;20094;-72
2023/01/18 13:21:01;;;;;;;15.23;7.88;;;;;;;2.27;70.38;97236.78;5224111;28;20059;-69
2023/01/18 13:24:08;;;;;;;18.83;7.75;;;;;;;2.13;69.89;97233.72;5220266;28;20049;-69
2023/01/18 13:27:11;;;;;;;19.55;7.55;;;;;;;2.08;70.70;97223.66;5221750;28;20056;-68
2023/01/18 13:30:15;;;;;;;16.58;8.10;;;;;;;2.32;69.64;97239.84;5222884;28;20127;-69
2023/01/18 13:33:22;;;;;;;22.33;7.45;;;;;;;2.69;69.39;97248.81;5218168;28;20076;-70
2023/01/18 13:36:17;;;;;;;20.65;8.35;;;;;;;2.98;67.72;97252.25;5220126;28;20083;-70
2023/01/18 13:39:17;;;;;;;20.52;8.13;;;;;;;2.93;67.28;97261.47;5220844;28;20052;-70
2023/01/18 13:42:23;;;;;;;13.43;7.47;;;;;;;3.12;68.19;97271.13;5223167;28;20064;-69
2023/01/18 13:45:21;;;;;;;14.13;6.95;;;;;;;2.92;66.56;97270.31;5225240;28;20106;-70
2023/01/18 13:48:49;;;;;;;20.42;6.93;;;;;;;3.19;67.34;97280.06;5224954;28;20430;-69
2023/01/18 13:51:39;;;;;;;16.35;7.53;;;;;;;2.67;67.44;97279.53;5223513;28;20056;-71
2023/01/18 13:54:29;;;;;;;17.75;7.60;;;;;;;2.67;69.18;97288.19;5224810;28;20041;-70
2023/01/18 13:57:19;;;;;;;16.60;7.35;;;;;;;3.03;67.18;97283.25;5223209;28;20518;-70
2023/01/18 14:00:23;;;;;;;20.73;7.93;;;;;;;3.32;67.01;97298.13;5223480;28;20055;-71
2023/01/18 14:03:24;;;;;;;14.80;7.38;;;;;;;3.50;65.53;97296.41;5223397;28;20514;-70
2023/01/18 14:06:29;;;;;;;21.70;7.55;;;;;;;2.79;67.72;97302.00;5222045;28;20472;-72
2023/01/18 14:09:31;;;;;;;15.00;6.93;;;;;;;2.70;67.68;97289.72;5223453;28;20052;-70